Latest Coastal Weather Observations for Maroochydore

IDQ60701

Issued at 12:51 pm EST Tuesday 25 July 2017 (issued every 10 minutes, with the page automatically refreshed every 10 minutes)

About coastal observations | Map of coastal stations | Coastal observations for QLD | Marine services | Other Formats
Station Details ID: 040861 Name: SUNSHINE COAST AIRPORT Lat: -26.60 Lon: 153.09 Height: 3.3 m
Data from the previous 72 hours. | See also: Recent months at Maroochydore
Date/Time
EST
Temp
°C
Wind Pressure Rain since
9am
mm
Weather Cloud Vis
km
Sea
Height
m
Swell
Dir  Spd
kts
Gust
kts
hPa Trend Height
m
Period
s
Dir
25/12:30pm 22.4 SE 10 14 1021.5 - 0.0 - - 10 - - - -
25/12:00pm 22.7 ESE 5 7 1022.1 - 0.0 - - 10 - - - -
25/11:30am 22.2 ESE 7 9 1022.7 - 0.0 - - 10 - - - -
25/11:00am 22.3 SE 6 12 1023.3 - 0.0 - - 10 - - - -
25/10:30am 21.2 E 5 7 1023.8 - 0.0 - - 10 - - - -
25/10:00am 20.9 SSE 5 8 1024.0 - 0.0 - - 10 - - - -
25/09:30am 19.3 WSW 4 6 1024.0 - 0.0 - - 10 - - - -
25/09:00am 16.6 W 5 6 1024.1 - 0.0 - - 10 - - - -
25/08:30am 13.4 W 4 6 1023.9 - 0.0 - - 9 - - - -
25/08:00am 10.4 WNW 4 6 1023.6 - 0.0 - - 10 - - - -
25/07:30am 8.1 W 5 7 1023.4 - 0.0 - - 8 - - - -
25/07:00am 5.4 W 6 7 1023.2 - 0.0 - - 7 - - - -
25/06:59am 5.3 W 6 7 1023.2 - 0.0 - - 7 - - - -
25/06:39am 5.0 W 5 6 1023.0 - 0.0 - - 6 - - - -
25/06:30am 4.8 W 5 6 1022.9 - 0.0 - - 8 - - - -
25/06:18am 5.2 W 5 6 1022.8 - 0.0 - - 8 - - - -
25/06:00am 4.9 W 6 6 1022.5 - 0.0 - - 6 - - - -
25/05:30am 5.7 W 5 6 1022.1 - 0.0 - - 6 - - - -
25/05:00am 5.3 W 6 7 1021.8 - 0.0 - - 6 - - - -
25/04:40am 5.1 W 4 5 1021.8 - 0.0 - - 6 - - - -
25/04:30am 5.2 W 5 6 1021.6 - 0.0 - - 8 - - - -
25/04:00am 5.3 W 5 6 1021.4 - 0.0 - - 10 - - - -
25/03:30am 5.7 W 6 6 1021.3 - 0.0 - - 9 - - - -
25/03:00am 5.3 W 4 5 1021.3 - 0.0 - - 10 - - - -
25/02:30am 6.7 W 5 6 1021.3 - 0.0 - - 10 - - - -
25/02:00am 6.5 W 5 6 1021.2 - 0.0 - - 10 - - - -
25/01:30am 7.3 W 5 6 1021.3 - 0.0 - - 10 - - - -
25/01:00am 6.8 W 6 6 1021.5 - 0.0 - - 10 - - - -
25/12:30am 7.3 W 5 6 1021.5 - 0.0 - - 10 - - - -
25/12:00am 6.8 W 6 7 1021.5 - 0.0 - - 10 - - - -
 
Date/Time
EST
Temp
°C
Wind Pressure Rain since
9am
mm
Weather Cloud Vis
km
Sea
Height
m
Swell
Dir  Spd
kts
Gust
kts
hPa Trend Height
m
Period
s
Dir
24/11:30pm 7.2 W 4 6 1021.5 - 0.0 - - 10 - - - -
24/11:00pm 7.5 W 5 5 1021.5 - 0.0 - - 10 - - - -
24/10:30pm 7.5 W 5 5 1021.5 - 0.0 - - 10 - - - -
24/10:00pm 9.4 SW 5 7 1021.5 - 0.0 - - 10 - - - -
24/09:30pm 9.4 W 5 7 1021.5 - 0.0 - - 10 - - - -
24/09:00pm 9.3 W 5 7 1021.4 - 0.0 - - 10 - - - -
24/08:30pm 9.4 W 5 6 1021.4 - 0.0 - - 10 - - - -
24/08:00pm 10.5 W 3 5 1021.3 - 0.0 - - 10 - - - -
24/07:30pm 10.8 W 4 5 1021.0 - 0.0 - - 10 - - - -
24/07:00pm 11.4 W 5 5 1020.6 - 0.0 - - 10 - - - -
24/06:30pm 12.4 WNW 5 6 1020.2 - 0.0 - - 10 - - - -
24/06:00pm 13.7 ESE 2 4 1020.0 - 0.0 - - 10 - - - -
24/05:30pm 15.3 E 4 4 1019.7 - 0.0 - - 10 - - - -
24/05:00pm 18.9 E 5 6 1019.5 - 0.0 - - 10 - - - -
24/04:30pm 20.2 E 5 6 1019.2 - 0.0 - - 10 - - - -
24/04:00pm 20.9 E 4 5 1019.0 - 0.0 - - 10 - - - -
24/03:30pm 21.4 E 5 7 1019.1 - 0.0 - - 10 - - - -
24/03:00pm 21.6 ESE 7 9 1019.0 - 0.0 - - 10 - - - -
24/02:30pm 21.8 ESE 6 7 1019.1 - 0.0 - - 10 - - - -
24/02:00pm 21.6 E 6 8 1019.2 - 0.0 - - 10 - - - -
24/01:30pm 21.7 E 6 8 1019.4 - 0.0 - - 10 - - - -
24/01:00pm 21.5 E 6 8 1019.6 - 0.0 - - 10 - - - -
24/12:30pm 21.4 E 7 9 1019.9 - 0.0 - - 10 - - - -
24/12:00pm 21.7 E 7 9 1020.5 - 0.0 - - 10 - - - -
24/11:30am 21.8 E 5 7 1020.7 - 0.0 - - 10 - - - -
24/11:00am 21.7 S 5 8 1021.2 - 0.0 - - 10 - - - -
24/10:30am 21.1 SSE 4 6 1021.6 - 0.0 - - 10 - - - -
24/10:00am 19.4 W 4 6 1021.8 - 0.0 - - 10 - - - -
24/09:30am 17.8 W 4 5 1021.8 - 0.0 - - 10 - - - -
24/09:00am 14.9 W 7 8 1021.6 - 0.2 - - 10 - - - -
24/08:30am 12.3 W 6 8 1021.4 - 0.2 - - 10 - - - -
24/08:00am 9.8 WNW 6 7 1021.3 - 0.2 - - 10 - - - -
24/07:30am 7.8 WNW 5 5 1020.9 - 0.2 - - 10 - - - -
24/07:00am 4.8 W 5 6 1020.7 - 0.2 - - 10 - - - -
24/06:30am 4.7 WNW 5 6 1020.5 - 0.0 - - 10 - - - -
24/06:00am 4.9 W 6 6 1020.3 - 0.0 - - 10 - - - -
24/05:30am 4.7 W 6 7 1020.1 - 0.0 - - 10 - - - -
24/05:00am 5.5 W 5 7 1019.8 - 0.0 - - 10 - - - -
24/04:30am 5.6 W 6 8 1019.5 - 0.0 - - 10 - - - -
24/04:00am 5.4 W 5 6 1019.4 - 0.0 - - 10 - - - -
24/03:30am 6.4 WNW 5 6 1019.3 - 0.0 - - 10 - - - -
24/03:00am 7.1 W 5 6 1019.4 - 0.0 - - 10 - - - -
24/02:30am 7.6 WNW 8 8 1019.5 - 0.0 - - 10 - - - -
24/02:00am 7.6 WNW 5 6 1019.7 - 0.0 - - 10 - - - -
24/01:30am 7.7 WNW 6 6 1019.7 - 0.0 - - 10 - - - -
24/01:00am 8.1 W 5 6 1019.9 - 0.0 - - 10 - - - -
24/12:52am 8.1 W 5 6 1019.9 - 0.0 - - 10 - - - -
24/12:38am 8.8 W 6 6 1020.0 - 0.0 - - 6 - - - -
24/12:30am 9.0 W 5 6 1020.0 - 0.0 - - 8 - - - -
24/12:08am 9.1 W 5 6 1019.9 - 0.0 - - 10 - - - -
24/12:00am 9.0 W 5 6 1019.9 - 0.0 - - 10 - - - -
 
Date/Time
EST
Temp
°C
Wind Pressure Rain since
9am
mm
Weather Cloud Vis
km
Sea
Height
m
Swell
Dir  Spd
kts
Gust
kts
hPa Trend Height
m
Period
s
Dir
23/11:48pm 8.9 W 5 6 1019.8 - 0.0 - - 5 - - - -
23/11:42pm 9.2 W 4 5 1019.8 - 0.0 - - 10 - - - -
23/11:31pm 9.2 WNW 4 5 1019.9 - 0.0 - - 6 - - - -
23/11:30pm 9.2 WNW 4 6 1019.9 - 0.0 - - 9 - - - -
23/11:03pm 10.2 W 6 6 1020.1 - 0.0 - - 10 - - - -
23/11:00pm 10.2 W 6 7 1020.1 - 0.0 - - 10 - - - -
23/10:30pm 9.1 W 4 5 1020.1 - 0.0 - - 7 - - - -
23/10:03pm 9.9 W 3 4 1020.2 - 0.0 - - 6 - - - -
23/10:00pm 10.1 W 3 4 1020.2 - 0.0 - - 9 - - - -
23/09:38pm 10.8 WNW 5 6 1020.1 - 0.0 - - 10 - - - -
23/09:30pm 10.6 WNW 6 7 1020.1 - 0.0 - - 10 - - - -
23/09:14pm 10.1 WNW 4 5 1020.1 - 0.0 - - 4 - - - -
23/09:05pm 10.0 SSW 1 5 1020.0 - 0.0 - - 7 - - - -
23/09:00pm 10.1 CALM 0 0 1020.0 - 0.0 - - 8 - - - -
23/08:42pm 9.9 CALM 0 0 1019.9 - 0.0 - - 6 - - - -
23/08:30pm 10.8 CALM 0 3 1019.9 - 0.0 - - 10 - - - -
23/08:00pm 12.9 SW 5 6 1019.7 - 0.0 - - 10 - - - -
23/07:30pm 12.4 NNW 6 7 1019.4 - 0.0 - - 10 - - - -
23/07:00pm 12.8 NNW 5 7 1019.1 - 0.0 - - 10 - - - -
23/06:30pm 12.7 N 5 7 1018.9 - 0.0 - - 10 - - - -
23/06:00pm 16.4 N 4 6 1018.5 - 0.0 - - 10 - - - -
23/05:30pm 16.8 N 5 7 1018.2 - 0.0 - - 10 - - - -
23/05:00pm 18.5 N 8 11 1017.8 - 0.0 - - 10 - - - -
23/04:30pm 20.0 NNE 9 12 1017.7 - 0.0 - Partly cloudy 10 - - - -
23/04:00pm 21.1 NNE 8 11 1017.6 - 0.0 - Partly cloudy 10 - - - -
23/03:30pm 21.3 NE 10 12 1017.5 - 0.0 - Partly cloudy 10 - - - -
23/03:00pm 20.1 NE 11 13 1017.4 - 0.0 - Partly cloudy 10 - - - -
23/02:30pm 20.4 NE 11 13 1017.5 - 0.0 - - 10 - - - -
23/02:00pm 22.3 NE 11 14 1017.8 - 0.0 - Partly cloudy 10 - - - -
23/01:30pm 20.7 NE 12 15 1018.1 - 0.0 - Partly cloudy 10 - - - -
23/01:00pm 21.6 ENE 8 11 1018.6 - 0.0 - Partly cloudy 10 - - - -
23/12:30pm 21.6 NE 9 12 1019.1 - 0.0 - Partly cloudy 10 - - - -
23/12:00pm 20.4 NE 8 10 1019.8 - 0.0 - Mostly cloudy 10 - - - -
23/11:30am 19.7 ENE 9 11 1020.5 - 0.0 - Partly cloudy 10 - - - -
23/11:00am 20.1 ENE 8 11 1021.1 - 0.0 - - 10 - - - -
23/10:30am 20.7 ENE 5 8 1021.7 - 0.0 - - 10 - - - -
23/10:00am 19.8 E 4 5 1022.1 - 0.0 - - 10 - - - -
23/09:30am 18.2 SW 5 7 1022.3 - 0.0 - - 10 - - - -
23/09:00am 15.3 SSW 3 4 1022.4 - 0.0 - Mostly clear 10 - - - -
23/08:30am 12.9 W 2 3 1022.4 - 0.0 - Partly cloudy 10 - - - -
23/08:00am 12.0 W 4 5 1022.1 - 0.0 - - 10 - - - -
23/07:30am 10.3 W 3 5 1022.0 - 0.0 - - 10 - - - -
23/07:27am 10.1 W 4 6 1021.9 - 0.0 - - 10 - - - -
23/07:00am 7.8 W 4 5 1021.7 - 0.0 - - 4 - - - -
23/06:30am 7.0 W 5 6 1021.4 - 0.0 - - 2 - - - -
23/06:00am 8.2 W 5 6 1021.2 - 0.0 - - 0.9 - - - -
23/05:30am 7.5 W 6 6 1020.9 - 0.0 - - 1 - - - -
23/05:00am 8.1 W 5 6 1020.8 - 0.0 - - 5 - - - -
23/04:30am 7.9 W 5 6 1020.8 - 0.0 - - 5 - - - -
23/04:00am 8.4 W 5 6 1020.7 - 0.0 - - 3 - - - -
23/03:30am 8.5 W 4 5 1020.7 - 0.0 - - 6 - - - -
23/03:28am 8.4 W 4 5 1020.7 - 0.0 - - 6 - - - -
23/03:27am 8.4 W 4 5 1020.7 - 0.0 - - 7 - - - -
23/03:00am 8.0 W 5 6 1020.7 - 0.0 - - 5 - - - -
23/02:58am 8.2 W 5 6 1020.8 - 0.0 - - 6 - - - -
23/02:39am 8.4 W 6 6 1020.8 - 0.0 - - 9 - - - -
23/02:30am 8.3 W 6 6 1021.0 - 0.0 - - 7 - - - -
23/02:00am 8.5 WSW 3 4 1021.0 - 0.0 - - 9 - - - -
23/01:30am 8.9 W 5 6 1021.3 - 0.0 - - 5 - - - -
23/01:17am 8.7 W 5 5 1021.3 - 0.0 - - 6 - - - -
23/01:06am 8.3 W 5 5 1021.5 - 0.0 - - 7 - - - -
23/01:00am 8.6 W 5 5 1021.5 - 0.0 - - 7 - - - -
23/12:47am 8.7 W 4 5 1021.6 - 0.0 - - 6 - - - -
23/12:46am 8.7 W 4 5 1021.6 - 0.0 - - 7 - - - -
23/12:34am 8.7 W 4 5 1021.6 - 0.0 - - 6 - - - -
23/12:30am 8.7 W 4 5 1021.6 - 0.0 - - 7 - - - -
23/12:05am 8.7 W 4 5 1021.7 - 0.0 - - 6 - - - -
23/12:00am 8.9 W 4 5 1021.7 - 0.0 - - 9 - - - -
 
Date/Time
EST
Temp
°C
Wind Pressure Rain since
9am
mm
Weather Cloud Vis
km
Sea
Height
m
Swell
Dir  Spd
kts
Gust
kts
hPa Trend Height
m
Period
s
Dir
22/11:30pm 9.1 WSW 4 5 1021.9 - 0.0 - - 10 - - - -
22/11:00pm 9.6 WSW 4 5 1022.1 - 0.0 - - 10 - - - -
22/10:30pm 8.9 W 4 5 1022.2 - 0.0 - - 10 - - - -
22/10:00pm 8.5 W 5 6 1022.3 - 0.0 - - 10 - - - -
22/09:30pm 8.2 WSW 4 4 1022.2 - 0.0 - - 10 - - - -
22/09:00pm 9.3 WSW 3 4 1022.0 - 0.0 - - 10 - - - -
22/08:30pm 9.9 WSW 3 4 1021.8 - 0.0 - - 10 - - - -
22/08:00pm 9.8 CALM 0 3 1021.7 - 0.0 - - 10 - - - -
22/07:30pm 11.8 CALM 0 3 1021.5 - 0.0 - - 10 - - - -
22/07:00pm 12.4 W 5 6 1021.3 - 0.0 - - 10 - - - -
22/06:30pm 14.5 SE 4 6 1021.0 - 0.0 - - 10 - - - -
22/06:00pm 16.0 SE 5 7 1020.7 - 0.0 - - 10 - - - -
22/05:30pm 17.0 ESE 7 9 1020.5 - 0.0 - - 10 - - - -
22/05:00pm 17.2 SE 7 9 1020.4 - 0.0 - - 10 - - - -
22/04:30pm 17.9 ESE 8 11 1020.3 - 0.0 - - 10 - - - -
22/04:00pm 18.5 SE 9 12 1020.3 - 0.0 - - 9 - - - -
22/03:30pm 18.7 SE 11 14 1020.3 - 0.0 - - 10 - - - -
22/03:00pm 19.4 ESE 10 13 1020.3 - 0.0 - - 10 - - - -
22/02:30pm 19.3 SE 10 13 1020.4 - 0.0 - - 10 - - - -
22/02:00pm 19.6 ESE 10 14 1020.6 - 0.0 - - 10 - - - -
22/01:30pm 19.6 SE 11 14 1021.0 - 0.0 - - 10 - - - -
22/01:00pm 19.7 SE 11 14 1021.1 - 0.0 - - 10 - - - -

Other Formats:

Comma delimited format used in spreadsheet applications
http://www.bom.gov.au/fwo/IDQ60701/IDQ60701.94569.axf

JavaScript Object Notation format (JSON) in row-major order
http://www.bom.gov.au/fwo/IDQ60701/IDQ60701.94569.json